Time;durP1;ratioP1;P1;durP2;ratioP2;P2;SDS_P1;SDS_P2;PMS_P1;PMS_P2;Temp;Humidity;BMP_temperature;BMP_pressure;BME280_temperature;BME280_humidity;BME280_pressure;Samples;Min_cycle;Max_cycle;Signal;HPM_P1;HPM_P2
2021/03/30 00:00:48;;;;;;;16.90;7.23;;;;;;;;;;6196404;23;20647;-92
2021/03/30 00:03:53;;;;;;;15.20;7.17;;;;;;;;;;6180916;23;20239;-92
2021/03/30 00:06:58;;;;;;;23.07;6.67;;;;;;;;;;6182835;23;20219;-91
2021/03/30 00:10:04;;;;;;;16.03;7.30;;;;;;;;;;6179839;23;20666;-91
2021/03/30 00:13:08;;;;;;;16.67;6.93;;;;;;;;;;6179840;23;20188;-88
2021/03/30 00:16:13;;;;;;;19.23;6.67;;;;;;;;;;6180381;23;20156;-89
2021/03/30 00:19:18;;;;;;;16.17;7.43;;;;;;;;;;6180176;23;20236;-88
2021/03/30 00:22:23;;;;;;;16.77;7.33;;;;;;;;;;6178780;23;20176;-90
2021/03/30 00:25:28;;;;;;;17.73;7.70;;;;;;;;;;6178956;23;20192;-89
2021/03/30 00:28:32;;;;;;;18.87;7.03;;;;;;;;;;6179172;23;20233;-90
2021/03/30 00:31:37;;;;;;;17.90;7.57;;;;;;;;;;6178331;23;20236;-88
2021/03/30 00:34:42;;;;;;;20.07;7.97;;;;;;;;;;6177910;23;20219;-90
2021/03/30 00:37:47;;;;;;;19.33;7.43;;;;;;;;;;6179111;23;20183;-90
2021/03/30 00:40:52;;;;;;;17.63;7.07;;;;;;;;;;6178652;23;20707;-89
2021/03/30 00:43:56;;;;;;;16.43;7.37;;;;;;;;;;6178330;23;20191;-88
2021/03/30 00:47:02;;;;;;;19.53;7.83;;;;;;;;;;6177453;23;20283;-90
2021/03/30 00:50:07;;;;;;;14.17;7.10;;;;;;;;;;6178761;23;20172;-90
2021/03/30 00:53:14;;;;;;;18.40;8.23;;;;;;;;;;6178148;23;20220;-90
2021/03/30 00:56:42;;;;;;;18.00;7.50;;;;;;;;;;6195388;23;20171;-89
2021/03/30 00:59:46;;;;;;;16.73;6.60;;;;;;;;;;6178953;23;20172;-90
2021/03/30 01:02:51;;;;;;;23.40;7.37;;;;;;;;;;6178422;23;20607;-89
2021/03/30 01:05:56;;;;;;;16.33;7.03;;;;;;;;;;6176622;23;20172;-89
2021/03/30 01:09:09;;;;;;;18.00;7.43;;;;;;;;;;6177691;23;20228;-90
2021/03/30 01:12:47;;;;;;;21.27;7.90;;;;;;;;;;6178760;23;20196;-89
2021/03/30 01:15:54;;;;;;;17.03;7.40;;;;;;;;;;6058737;23;20511;-89
2021/03/30 01:19:01;;;;;;;18.97;7.40;;;;;;;;;;6058549;23;20166;-90
2021/03/30 01:22:20;;;;;;;16.10;7.90;;;;;;;;;;6178029;23;20218;-90
2021/03/30 01:25:27;;;;;;;24.07;7.33;;;;;;;;;;6177292;23;20195;-91
2021/03/30 01:28:34;;;;;;;16.37;7.60;;;;;;;;;;6179606;23;20172;-90
2021/03/30 01:31:41;;;;;;;16.87;7.50;;;;;;;;;;6179098;23;20172;-89
2021/03/30 01:34:47;;;;;;;23.63;7.77;;;;;;;;;;6179309;23;20183;-90
2021/03/30 01:37:52;;;;;;;23.83;8.57;;;;;;;;;;6180849;23;20175;-90
2021/03/30 01:40:57;;;;;;;16.33;7.50;;;;;;;;;;6180538;23;20180;-88
2021/03/30 01:44:02;;;;;;;18.00;7.90;;;;;;;;;;6180458;23;20247;-89
2021/03/30 01:47:08;;;;;;;23.57;8.43;;;;;;;;;;6177773;23;20215;-89
2021/03/30 01:50:13;;;;;;;19.67;7.93;;;;;;;;;;6175737;23;20172;-89
2021/03/30 01:53:18;;;;;;;21.50;8.30;;;;;;;;;;6175430;23;20156;-90
2021/03/30 01:56:23;;;;;;;19.40;8.00;;;;;;;;;;6178238;23;20163;-89
2021/03/30 01:59:28;;;;;;;22.20;8.20;;;;;;;;;;6177867;23;20232;-90
2021/03/30 02:02:34;;;;;;;21.47;8.50;;;;;;;;;;6193451;23;20520;-89
2021/03/30 02:05:38;;;;;;;19.37;8.33;;;;;;;;;;6198589;23;20175;-91
2021/03/30 02:08:45;;;;;;;21.07;8.00;;;;;;;;;;6200111;23;20215;-90
2021/03/30 02:11:50;;;;;;;20.53;8.17;;;;;;;;;;6194303;23;20510;-90
2021/03/30 02:14:55;;;;;;;20.80;7.60;;;;;;;;;;6194481;23;20198;-90
2021/03/30 02:18:05;;;;;;;18.43;7.43;;;;;;;;;;6195812;23;20172;-90
2021/03/30 02:21:12;;;;;;;17.87;8.40;;;;;;;;;;6195966;23;20180;-89
2021/03/30 02:24:18;;;;;;;22.33;8.03;;;;;;;;;;6194450;23;20235;-90
2021/03/30 02:27:23;;;;;;;17.20;8.33;;;;;;;;;;6195969;23;20164;-90
2021/03/30 02:30:29;;;;;;;19.23;8.70;;;;;;;;;;6195602;23;20191;-90
2021/03/30 02:33:35;;;;;;;19.00;8.27;;;;;;;;;;6196649;23;20203;-89
2021/03/30 02:36:40;;;;;;;15.63;7.57;;;;;;;;;;6196447;23;20710;-90
2021/03/30 02:39:45;;;;;;;19.83;8.07;;;;;;;;;;6194855;23;20218;-90
2021/03/30 02:42:51;;;;;;;17.43;7.90;;;;;;;;;;6194626;23;20211;-90
2021/03/30 02:45:56;;;;;;;21.97;7.63;;;;;;;;;;6195761;23;20160;-89
2021/03/30 02:49:02;;;;;;;20.77;7.47;;;;;;;;;;6197407;23;20156;-89
2021/03/30 02:52:07;;;;;;;17.63;7.07;;;;;;;;;;6198296;23;20180;-89
2021/03/30 02:55:12;;;;;;;18.67;7.30;;;;;;;;;;6195766;23;20172;-89
2021/03/30 02:58:18;;;;;;;25.03;7.40;;;;;;;;;;6196233;23;20171;-89
2021/03/30 03:01:23;;;;;;;21.97;7.67;;;;;;;;;;6198465;23;20220;-89
2021/03/30 03:04:28;;;;;;;18.23;8.00;;;;;;;;;;6197910;23;20192;-90
2021/03/30 03:07:33;;;;;;;20.03;8.03;;;;;;;;;;6196826;23;20175;-90
2021/03/30 03:10:38;;;;;;;19.70;8.53;;;;;;;;;;6197859;23;20171;-89
2021/03/30 03:13:44;;;;;;;18.93;7.93;;;;;;;;;;6196621;23;20220;-90
2021/03/30 03:16:48;;;;;;;24.30;8.73;;;;;;;;;;6195895;23;20168;-89
2021/03/30 03:19:55;;;;;;;20.07;8.40;;;;;;;;;;6200764;23;20184;-89
2021/03/30 03:23:00;;;;;;;20.83;7.30;;;;;;;;;;6196414;23;20220;-89
2021/03/30 03:26:05;;;;;;;19.00;8.17;;;;;;;;;;6196447;23;20207;-89
2021/03/30 03:29:13;;;;;;;22.40;8.27;;;;;;;;;;6198062;23;20263;-89
2021/03/30 03:32:22;;;;;;;15.83;7.33;;;;;;;;;;6197846;23;20188;-88
2021/03/30 03:35:28;;;;;;;16.70;7.50;;;;;;;;;;6197460;23;20168;-88
2021/03/30 03:41:51;;;;;;;15.10;6.77;;;;;;;;;;6180861;23;20192;-88
2021/03/30 03:44:55;;;;;;;28.60;7.80;;;;;;;;;;6195381;23;20642;-89
2021/03/30 03:47:59;;;;;;;19.00;8.13;;;;;;;;;;6196766;23;20164;-89
2021/03/30 03:51:05;;;;;;;24.70;8.37;;;;;;;;;;6196339;23;20175;-88
2021/03/30 03:54:12;;;;;;;16.87;7.73;;;;;;;;;;6179880;23;20666;-88
2021/03/30 03:57:19;;;;;;;20.73;8.00;;;;;;;;;;6197210;23;20522;-90
2021/03/30 04:00:23;;;;;;;24.13;8.20;;;;;;;;;;6180174;23;20215;-89
2021/03/30 04:03:31;;;;;;;18.00;7.60;;;;;;;;;;6178633;23;20199;-89
2021/03/30 04:06:41;;;;;;;15.47;8.13;;;;;;;;;;6178227;23;20171;-89
2021/03/30 04:09:48;;;;;;;15.37;7.77;;;;;;;;;;6196602;23;20215;-90
2021/03/30 04:12:54;;;;;;;20.93;7.50;;;;;;;;;;6198303;23;20172;-89
2021/03/30 04:16:01;;;;;;;17.47;7.83;;;;;;;;;;6180615;23;20335;-90
2021/03/30 04:19:09;;;;;;;22.13;8.40;;;;;;;;;;6179984;23;20249;-89
2021/03/30 04:22:16;;;;;;;20.10;8.37;;;;;;;;;;6179171;23;20199;-88
2021/03/30 04:25:20;;;;;;;19.13;8.17;;;;;;;;;;6179040;23;20658;-89
2021/03/30 04:28:25;;;;;;;21.07;7.37;;;;;;;;;;6197594;23;20163;-89
2021/03/30 04:31:30;;;;;;;21.33;8.57;;;;;;;;;;6179829;23;20167;-91
2021/03/30 04:34:34;;;;;;;27.53;8.40;;;;;;;;;;6182780;23;20172;-90
2021/03/30 04:37:39;;;;;;;20.33;8.63;;;;;;;;;;6179859;23;20171;-91
2021/03/30 04:40:49;;;;;;;23.90;9.33;;;;;;;;;;6187914;23;20246;-91
2021/03/30 04:43:54;;;;;;;24.93;9.97;;;;;;;;;;6180187;23;20260;-89
2021/03/30 04:46:59;;;;;;;21.77;8.63;;;;;;;;;;6180764;23;20171;-90
2021/03/30 04:50:05;;;;;;;29.23;8.87;;;;;;;;;;6179536;23;20175;-92
2021/03/30 04:53:10;;;;;;;19.03;8.30;;;;;;;;;;6180765;23;20201;-90
2021/03/30 04:56:14;;;;;;;19.70;9.00;;;;;;;;;;6180017;23;20369;-90
2021/03/30 04:59:19;;;;;;;19.93;8.37;;;;;;;;;;6179870;23;20452;-90
2021/03/30 05:02:24;;;;;;;22.00;7.77;;;;;;;;;;6181164;23;20176;-91
2021/03/30 05:05:29;;;;;;;18.17;8.67;;;;;;;;;;6181309;23;20215;-90
2021/03/30 05:08:34;;;;;;;24.63;9.07;;;;;;;;;;6177906;23;20215;-90
2021/03/30 05:11:39;;;;;;;19.87;8.40;;;;;;;;;;6179614;23;20171;-88
2021/03/30 05:14:43;;;;;;;21.47;9.10;;;;;;;;;;6178659;23;20211;-88
2021/03/30 05:17:48;;;;;;;21.67;9.20;;;;;;;;;;6182976;23;20255;-89
2021/03/30 05:20:52;;;;;;;23.57;8.97;;;;;;;;;;6180029;23;20176;-90
2021/03/30 05:23:58;;;;;;;22.87;7.43;;;;;;;;;;6197955;23;20196;-89
2021/03/30 05:27:03;;;;;;;28.13;8.27;;;;;;;;;;6177920;23;20172;-90
2021/03/30 05:30:09;;;;;;;25.07;7.90;;;;;;;;;;6179320;23;20223;-90
2021/03/30 05:33:14;;;;;;;31.80;8.70;;;;;;;;;;6180212;23;20179;-89
2021/03/30 05:36:18;;;;;;;21.43;8.03;;;;;;;;;;6179746;23;20216;-90
2021/03/30 05:39:24;;;;;;;20.43;7.97;;;;;;;;;;6186397;23;20206;-90
2021/03/30 05:42:29;;;;;;;20.50;8.43;;;;;;;;;;6228289;23;20159;-89
2021/03/30 05:45:34;;;;;;;19.77;7.77;;;;;;;;;;6228116;23;20191;-90
2021/03/30 05:48:41;;;;;;;23.90;7.57;;;;;;;;;;6227796;23;20172;-90
2021/03/30 05:51:46;;;;;;;21.40;7.97;;;;;;;;;;6211141;23;20219;-89
2021/03/30 05:54:52;;;;;;;18.57;7.50;;;;;;;;;;6230139;23;20171;-90
2021/03/30 05:57:58;;;;;;;18.50;6.97;;;;;;;;;;6228024;23;20171;-91
2021/03/30 06:01:03;;;;;;;22.77;7.03;;;;;;;;;;6227745;23;20278;-90
2021/03/30 06:04:10;;;;;;;16.63;7.03;;;;;;;;;;6227843;23;20206;-90
2021/03/30 06:07:15;;;;;;;14.37;6.77;;;;;;;;;;6227876;23;20199;-91
2021/03/30 06:10:23;;;;;;;18.17;6.77;;;;;;;;;;6226324;23;20179;-91
2021/03/30 06:13:47;;;;;;;15.10;6.47;;;;;;;;;;6207245;23;20170;-91
2021/03/30 06:16:52;;;;;;;23.27;6.83;;;;;;;;;;6207984;23;20379;-92
2021/03/30 06:19:57;;;;;;;16.63;6.30;;;;;;;;;;6226764;23;20167;-91
2021/03/30 06:26:33;;;;;;;20.43;7.10;;;;;;;;;;6227823;23;20166;-91
2021/03/30 06:29:40;;;;;;;15.53;6.73;;;;;;;;;;6186557;23;20187;-90
2021/03/30 06:32:44;;;;;;;13.80;6.03;;;;;;;;;;6213745;23;20210;-90
2021/03/30 06:35:49;;;;;;;16.80;6.60;;;;;;;;;;6229221;23;20162;-91
2021/03/30 06:38:58;;;;;;;13.00;5.77;;;;;;;;;;6214617;23;20239;-92
2021/03/30 06:42:07;;;;;;;18.23;6.97;;;;;;;;;;6234226;23;20195;-91
2021/03/30 06:45:15;;;;;;;18.10;6.47;;;;;;;;;;6230243;23;20249;-92
2021/03/30 06:48:20;;;;;;;13.50;6.73;;;;;;;;;;6229367;23;20198;-90
2021/03/30 06:51:24;;;;;;;15.60;6.83;;;;;;;;;;6231547;23;20167;-90
2021/03/30 06:54:29;;;;;;;18.80;7.83;;;;;;;;;;6231867;23;20504;-91
2021/03/30 06:57:39;;;;;;;15.77;7.40;;;;;;;;;;6231811;23;20200;-91
2021/03/30 07:00:45;;;;;;;18.80;7.87;;;;;;;;;;6233214;23;20171;-90
2021/03/30 07:03:50;;;;;;;15.47;7.53;;;;;;;;;;6232471;23;20191;-91
2021/03/30 07:06:55;;;;;;;20.33;7.50;;;;;;;;;;6233225;23;20190;-90
2021/03/30 07:10:00;;;;;;;22.33;7.90;;;;;;;;;;6231836;23;20175;-92
2021/03/30 07:13:06;;;;;;;24.23;8.20;;;;;;;;;;6228108;23;20171;-90
2021/03/30 07:16:16;;;;;;;25.27;8.33;;;;;;;;;;6212837;23;20167;-91
2021/03/30 07:19:23;;;;;;;36.73;9.40;;;;;;;;;;6230942;23;20171;-91
2021/03/30 07:22:30;;;;;;;17.53;7.43;;;;;;;;;;6230346;23;20166;-91
2021/03/30 07:25:37;;;;;;;19.83;8.43;;;;;;;;;;6232285;23;20234;-89
2021/03/30 07:28:47;;;;;;;16.87;8.07;;;;;;;;;;6228128;23;20232;-89
2021/03/30 07:31:55;;;;;;;17.30;7.90;;;;;;;;;;6228656;23;20155;-89
2021/03/30 07:35:01;;;;;;;19.80;8.10;;;;;;;;;;6210511;23;20296;-89
2021/03/30 07:38:10;;;;;;;27.90;8.63;;;;;;;;;;6225743;23;20598;-89
2021/03/30 07:41:19;;;;;;;17.57;7.23;;;;;;;;;;6215517;22;20215;-89
2021/03/30 07:44:25;;;;;;;18.73;7.93;;;;;;;;;;6196382;23;20196;-90
2021/03/30 07:47:30;;;;;;;19.47;7.97;;;;;;;;;;6213073;23;20172;-90
2021/03/30 07:50:51;;;;;;;21.67;8.63;;;;;;;;;;6194887;23;20618;-90
2021/03/30 07:53:55;;;;;;;19.87;7.70;;;;;;;;;;6197183;23;20611;-91
2021/03/30 07:57:00;;;;;;;18.87;8.10;;;;;;;;;;6197276;23;20171;-91
2021/03/30 08:00:05;;;;;;;22.73;7.73;;;;;;;;;;6194872;23;20172;-90
2021/03/30 08:03:19;;;;;;;22.23;7.83;;;;;;;;;;6195021;23;20199;-89
2021/03/30 08:06:24;;;;;;;21.27;7.73;;;;;;;;;;6212819;23;20176;-89
2021/03/30 08:09:29;;;;;;;17.93;7.57;;;;;;;;;;6196047;23;20292;-90
2021/03/30 08:12:33;;;;;;;25.93;8.43;;;;;;;;;;6195100;23;20168;-90
2021/03/30 08:15:43;;;;;;;19.60;7.70;;;;;;;;;;6195490;23;20495;-90
2021/03/30 08:18:48;;;;;;;21.17;7.77;;;;;;;;;;6195407;23;20175;-91
2021/03/30 08:21:53;;;;;;;18.00;7.47;;;;;;;;;;6195319;23;20224;-91
2021/03/30 08:24:59;;;;;;;20.75;6.97;;;;;;;;;;6212295;23;20211;-92
2021/03/30 08:28:03;;;;;;;16.70;7.35;;;;;;;;;;6195821;23;20614;-91
2021/03/30 08:31:09;;;;;;;17.15;7.57;;;;;;;;;;6199340;23;20215;-92
2021/03/30 08:34:22;;;;;;;30.92;9.25;;;;;;;;;;6205277;23;20195;-93
2021/03/30 08:37:39;;;;;;;15.48;7.30;;;;;;;;;;6203998;23;20171;-93
2021/03/30 08:40:45;;;;;;;15.93;8.23;;;;;;;;;;6220689;23;20211;-91
2021/03/30 08:44:04;;;;;;;19.95;8.05;;;;;;;;;;6199876;23;20172;-93
2021/03/30 08:47:25;;;;;;;17.58;8.55;;;;;;;;;;6215891;23;20168;-91
2021/03/30 08:50:33;;;;;;;25.80;8.45;;;;;;;;;;6197982;23;20223;-92
2021/03/30 08:53:38;;;;;;;14.98;8.02;;;;;;;;;;6201873;23;20152;-92
2021/03/30 08:56:43;;;;;;;15.95;7.22;;;;;;;;;;6198246;23;20223;-92
2021/03/30 08:59:48;;;;;;;19.45;7.65;;;;;;;;;;6216881;23;20167;-92
2021/03/30 09:03:00;;;;;;;16.50;7.63;;;;;;;;;;6198275;23;20168;-92
2021/03/30 09:06:05;;;;;;;19.20;7.43;;;;;;;;;;6197597;23;20251;-91
2021/03/30 09:09:23;;;;;;;16.95;7.35;;;;;;;;;;6196041;23;20240;-90
2021/03/30 09:12:27;;;;;;;20.77;7.82;;;;;;;;;;6199046;23;20252;-91
2021/03/30 09:15:32;;;;;;;15.93;7.93;;;;;;;;;;6198557;23;20171;-92
2021/03/30 09:18:38;;;;;;;18.35;7.72;;;;;;;;;;6198679;23;20184;-91
2021/03/30 09:21:44;;;;;;;18.70;7.35;;;;;;;;;;6196138;23;20168;-90
2021/03/30 09:24:57;;;;;;;19.25;7.70;;;;;;;;;;6192488;23;20195;-89
2021/03/30 09:28:03;;;;;;;22.98;7.80;;;;;;;;;;6210413;23;20175;-90
2021/03/30 09:31:08;;;;;;;16.60;7.32;;;;;;;;;;6195454;23;20626;-91
2021/03/30 09:34:13;;;;;;;22.40;7.78;;;;;;;;;;6194625;23;20207;-90
2021/03/30 09:37:18;;;;;;;21.17;8.35;;;;;;;;;;6194391;23;20175;-90
2021/03/30 09:40:23;;;;;;;16.70;8.63;;;;;;;;;;6204937;23;20202;-88
2021/03/30 09:43:29;;;;;;;22.48;9.13;;;;;;;;;;6226223;23;20226;-88
2021/03/30 10:10:04;;;;;;;17.83;11.57;;;;;;;;;;6146506;23;20279;-89
2021/03/30 10:13:22;;;;;;;18.20;11.13;;;;;;;;;;6194365;23;20167;-88
2021/03/30 10:16:27;;;;;;;22.33;11.93;;;;;;;;;;6193084;23;20170;-90
2021/03/30 10:19:32;;;;;;;20.80;11.55;;;;;;;;;;6177087;23;20627;-88
2021/03/30 10:22:37;;;;;;;20.80;11.57;;;;;;;;;;6176052;23;20222;-89
2021/03/30 10:25:43;;;;;;;23.98;10.73;;;;;;;;;;6175395;23;20199;-89
2021/03/30 10:28:52;;;;;;;22.92;11.13;;;;;;;;;;6175640;23;20171;-90
2021/03/30 10:32:01;;;;;;;19.13;10.35;;;;;;;;;;6192811;23;20168;-91
2021/03/30 10:35:07;;;;;;;19.73;10.00;;;;;;;;;;6174061;23;20218;-89
2021/03/30 10:38:11;;;;;;;14.77;9.77;;;;;;;;;;6177260;23;20178;-89
2021/03/30 10:41:17;;;;;;;17.42;9.68;;;;;;;;;;6193786;23;20223;-91
2021/03/30 10:44:32;;;;;;;18.73;9.10;;;;;;;;;;6195116;23;20258;-90
2021/03/30 10:47:38;;;;;;;15.45;8.93;;;;;;;;;;6184013;23;20626;-89
2021/03/30 10:50:42;;;;;;;16.55;9.23;;;;;;;;;;6180812;23;20218;-89
2021/03/30 10:53:47;;;;;;;21.30;9.60;;;;;;;;;;6199171;23;20368;-88
2021/03/30 11:10:38;;;;;;;14.95;8.10;;;;;;;;;;6197760;23;20194;-89
2021/03/30 11:17:38;;;;;;;14.70;8.52;;;;;;;;;;6194742;23;20187;-90
2021/03/30 11:20:44;;;;;;;14.32;8.18;;;;;;;;;;6190577;23;20187;-89
2021/03/30 11:23:49;;;;;;;16.63;7.90;;;;;;;;;;6197816;23;20175;-88
2021/03/30 11:26:55;;;;;;;20.90;7.60;;;;;;;;;;6198756;23;20172;-90
2021/03/30 11:30:07;;;;;;;13.23;6.50;;;;;;;;;;6196892;23;20172;-89
2021/03/30 11:33:16;;;;;;;14.73;6.70;;;;;;;;;;6200508;23;20240;-89
2021/03/30 11:36:24;;;;;;;15.57;6.75;;;;;;;;;;6199276;23;20214;-90
2021/03/30 11:39:29;;;;;;;17.38;7.47;;;;;;;;;;6200222;23;20199;-89
2021/03/30 11:42:34;;;;;;;14.10;6.50;;;;;;;;;;6200500;23;20188;-87
2021/03/30 11:45:39;;;;;;;20.23;6.25;;;;;;;;;;6183258;23;20240;-89
2021/03/30 11:49:07;;;;;;;14.73;6.57;;;;;;;;;;6202948;23;20175;-90
2021/03/30 11:52:14;;;;;;;14.32;6.72;;;;;;;;;;6180993;23;20190;-89
2021/03/30 11:55:18;;;;;;;14.25;7.28;;;;;;;;;;6199955;23;20244;-90
2021/03/30 11:58:23;;;;;;;15.50;7.88;;;;;;;;;;6198168;23;20166;-90
2021/03/30 12:01:27;;;;;;;13.85;7.57;;;;;;;;;;6199062;23;20163;-91
2021/03/30 12:04:32;;;;;;;13.18;8.10;;;;;;;;;;6199128;23;20214;-90
2021/03/30 12:07:37;;;;;;;16.23;7.50;;;;;;;;;;6198414;23;20176;-91
2021/03/30 12:10:42;;;;;;;14.35;6.95;;;;;;;;;;6197399;23;20690;-90
2021/03/30 12:13:47;;;;;;;12.70;7.35;;;;;;;;;;6181898;23;20658;-90
2021/03/30 12:16:52;;;;;;;11.15;6.60;;;;;;;;;;6198301;23;20166;-89
2021/03/30 12:19:56;;;;;;;14.45;7.63;;;;;;;;;;6180693;23;20493;-88
2021/03/30 12:23:02;;;;;;;11.20;5.50;;;;;;;;;;6198341;23;20175;-90
2021/03/30 12:26:07;;;;;;;15.32;6.07;;;;;;;;;;6196736;23;20264;-90
2021/03/30 12:29:12;;;;;;;11.25;4.53;;;;;;;;;;6180392;23;20167;-91
2021/03/30 12:32:16;;;;;;;17.75;5.50;;;;;;;;;;6196189;23;20183;-88
2021/03/30 12:35:21;;;;;;;10.98;5.55;;;;;;;;;;6195515;23;20186;-90
2021/03/30 12:38:27;;;;;;;14.25;5.78;;;;;;;;;;6177133;23;20194;-90
2021/03/30 12:41:31;;;;;;;12.68;6.65;;;;;;;;;;6191315;23;20170;-91
2021/03/30 12:44:37;;;;;;;18.75;6.30;;;;;;;;;;6192511;23;20170;-91
2021/03/30 12:47:41;;;;;;;11.90;5.30;;;;;;;;;;6193850;23;20170;-90
2021/03/30 12:50:46;;;;;;;15.82;6.00;;;;;;;;;;6193784;23;20179;-90
2021/03/30 12:53:55;;;;;;;25.02;6.10;;;;;;;;;;6194342;23;20222;-90
2021/03/30 12:56:59;;;;;;;15.00;6.90;;;;;;;;;;6192770;23;20191;-90
2021/03/30 13:00:05;;;;;;;14.77;7.47;;;;;;;;;;6192977;23;20175;-91
2021/03/30 13:03:10;;;;;;;14.30;7.25;;;;;;;;;;6175402;23;20172;-91
2021/03/30 13:06:15;;;;;;;12.73;6.53;;;;;;;;;;6191940;23;20607;-91
2021/03/30 13:09:21;;;;;;;14.82;7.65;;;;;;;;;;6193594;23;20348;-90
2021/03/30 13:12:25;;;;;;;19.58;7.15;;;;;;;;;;6192999;23;20199;-90
2021/03/30 13:15:30;;;;;;;15.65;7.75;;;;;;;;;;6193337;23;20194;-91
2021/03/30 13:18:35;;;;;;;12.00;6.88;;;;;;;;;;6177034;23;20167;-93
2021/03/30 13:21:39;;;;;;;12.07;6.63;;;;;;;;;;6194979;23;20600;-89
2021/03/30 13:24:45;;;;;;;13.68;6.57;;;;;;;;;;6195460;23;20167;-89
2021/03/30 13:27:50;;;;;;;13.68;6.53;;;;;;;;;;6179151;23;20187;-89
2021/03/30 13:30:54;;;;;;;25.42;7.05;;;;;;;;;;6195557;23;20215;-92
2021/03/30 13:33:59;;;;;;;59.13;10.93;;;;;;;;;;6195402;23;20199;-90
2021/03/30 13:37:03;;;;;;;19.67;7.55;;;;;;;;;;6195527;23;20184;-90
2021/03/30 13:40:10;;;;;;;37.45;8.15;;;;;;;;;;6177019;23;20195;-90
2021/03/30 13:43:15;;;;;;;11.98;6.68;;;;;;;;;;6192860;23;20227;-88
2021/03/30 13:46:19;;;;;;;22.70;7.30;;;;;;;;;;6195050;23;20163;-88
2021/03/30 13:49:23;;;;;;;22.92;7.47;;;;;;;;;;6195067;23;20639;-90
2021/03/30 13:52:28;;;;;;;13.80;7.07;;;;;;;;;;6195668;23;20171;-88
2021/03/30 13:55:33;;;;;;;23.05;7.38;;;;;;;;;;6177957;23;20210;-88
2021/03/30 13:58:37;;;;;;;13.63;7.00;;;;;;;;;;6194327;23;20171;-89
2021/03/30 14:01:42;;;;;;;101.97;10.48;;;;;;;;;;6195141;23;20230;-88
2021/03/30 14:04:46;;;;;;;16.23;7.25;;;;;;;;;;6192933;23;20170;-90
2021/03/30 14:07:51;;;;;;;13.23;7.15;;;;;;;;;;6193117;23;20202;-90
2021/03/30 14:10:57;;;;;;;14.50;6.60;;;;;;;;;;6195057;23;20536;-90
2021/03/30 14:14:09;;;;;;;14.90;6.95;;;;;;;;;;6211968;23;20194;-89
2021/03/30 14:17:24;;;;;;;19.00;7.90;;;;;;;;;;6192852;23;20171;-90
2021/03/30 14:20:30;;;;;;;24.65;7.28;;;;;;;;;;6192913;23;20172;-90
2021/03/30 14:23:42;;;;;;;17.50;6.68;;;;;;;;;;6210355;23;20638;-89
2021/03/30 14:26:50;;;;;;;14.15;7.25;;;;;;;;;;6193840;23;20170;-89
2021/03/30 14:29:54;;;;;;;15.85;6.80;;;;;;;;;;6193317;23;20266;-90
2021/03/30 14:33:00;;;;;;;17.92;7.43;;;;;;;;;;6209211;23;20541;-90
2021/03/30 14:36:06;;;;;;;19.38;7.05;;;;;;;;;;6191502;23;20219;-91
2021/03/30 14:39:12;;;;;;;21.88;6.82;;;;;;;;;;6192739;23;20171;-88
2021/03/30 14:42:19;;;;;;;12.38;6.97;;;;;;;;;;6199020;23;20239;-91
2021/03/30 14:46:29;;;;;;;13.23;7.07;;;;;;;;;;6201543;23;20187;-87
2021/03/30 14:53:01;;;;;;;68.60;9.88;;;;;;;;;;6214838;23;20183;-89
2021/03/30 14:56:13;;;;;;;17.05;7.30;;;;;;;;;;6198082;23;20291;-87
2021/03/30 14:59:31;;;;;;;12.80;6.53;;;;;;;;;;6197943;23;20171;-89
2021/03/30 15:02:59;;;;;;;15.23;8.43;;;;;;;;;;6215354;23;20164;-89
2021/03/30 15:06:05;;;;;;;20.98;9.60;;;;;;;;;;6198795;23;20163;-89
2021/03/30 15:09:11;;;;;;;18.38;7.40;;;;;;;;;;6197857;23;20171;-89
2021/03/30 15:12:16;;;;;;;17.23;7.93;;;;;;;;;;6198995;23;20171;-89
2021/03/30 15:15:26;;;;;;;14.45;7.45;;;;;;;;;;6199010;23;20214;-88
2021/03/30 15:18:30;;;;;;;13.77;6.88;;;;;;;;;;6199508;23;20216;-87
2021/03/30 15:21:35;;;;;;;21.23;7.75;;;;;;;;;;6200492;23;20350;-90
2021/03/30 15:24:42;;;;;;;13.85;7.57;;;;;;;;;;6200337;23;20185;-89
2021/03/30 15:27:47;;;;;;;14.13;7.45;;;;;;;;;;6196144;23;20630;-89
2021/03/30 15:30:52;;;;;;;13.68;7.22;;;;;;;;;;6195738;23;20269;-90
2021/03/30 15:33:57;;;;;;;13.75;7.75;;;;;;;;;;6195117;23;20192;-89
2021/03/30 15:37:01;;;;;;;31.23;9.13;;;;;;;;;;6194675;23;20741;-89
2021/03/30 15:40:10;;;;;;;13.85;7.05;;;;;;;;;;6193683;23;20187;-89
2021/03/30 15:43:15;;;;;;;15.80;6.80;;;;;;;;;;6194011;23;20168;-88
2021/03/30 15:46:33;;;;;;;18.45;7.38;;;;;;;;;;6193994;23;20175;-88
2021/03/30 15:49:38;;;;;;;14.50;6.82;;;;;;;;;;6212662;23;20232;-88
2021/03/30 15:52:44;;;;;;;19.08;7.00;;;;;;;;;;6195305;23;20191;-88
2021/03/30 15:55:49;;;;;;;18.00;6.50;;;;;;;;;;6193480;23;20199;-90
2021/03/30 15:58:54;;;;;;;13.80;6.50;;;;;;;;;;6193988;23;20176;-91
2021/03/30 16:02:02;;;;;;;15.43;7.50;;;;;;;;;;6195141;23;20493;-90
2021/03/30 16:05:12;;;;;;;15.40;7.18;;;;;;;;;;6216788;23;20207;-90
2021/03/30 16:08:22;;;;;;;13.25;6.38;;;;;;;;;;6200907;23;20511;-89
2021/03/30 16:11:27;;;;;;;15.98;7.00;;;;;;;;;;6200982;23;20192;-89
2021/03/30 16:14:31;;;;;;;16.75;6.75;;;;;;;;;;6199955;23;20199;-89
2021/03/30 16:17:37;;;;;;;20.40;7.70;;;;;;;;;;6217770;23;20176;-87
2021/03/30 16:20:42;;;;;;;16.02;8.07;;;;;;;;;;6200036;23;20619;-89
2021/03/30 16:23:46;;;;;;;17.05;7.70;;;;;;;;;;6199139;23;20514;-87
2021/03/30 16:26:51;;;;;;;15.98;6.85;;;;;;;;;;6199451;23;20187;-89
2021/03/30 16:29:58;;;;;;;30.23;8.88;;;;;;;;;;6201199;23;20390;-89
2021/03/30 16:33:07;;;;;;;38.03;16.30;;;;;;;;;;6185401;23;20703;-89
2021/03/30 16:36:12;;;;;;;32.95;9.75;;;;;;;;;;6199752;23;20196;-89
2021/03/30 16:39:17;;;;;;;22.67;8.25;;;;;;;;;;6198495;23;20172;-88
2021/03/30 16:42:21;;;;;;;20.65;8.48;;;;;;;;;;6199147;23;20196;-88
2021/03/30 16:45:26;;;;;;;19.80;6.95;;;;;;;;;;6199522;23;20192;-89
2021/03/30 16:48:32;;;;;;;29.77;7.80;;;;;;;;;;6199958;23;20174;-88
2021/03/30 16:51:37;;;;;;;15.57;6.95;;;;;;;;;;6198568;23;20176;-89
2021/03/30 16:54:45;;;;;;;17.10;6.78;;;;;;;;;;6199792;23;20176;-88
2021/03/30 16:57:51;;;;;;;17.42;7.20;;;;;;;;;;6200059;23;20172;-89
2021/03/30 17:00:55;;;;;;;16.45;7.47;;;;;;;;;;6199638;23;20224;-88
2021/03/30 17:04:01;;;;;;;19.98;8.38;;;;;;;;;;6199750;23;20180;-90
2021/03/30 17:07:07;;;;;;;18.58;7.43;;;;;;;;;;6197786;23;20215;-89
2021/03/30 17:10:14;;;;;;;20.40;7.97;;;;;;;;;;6216664;23;20216;-87
2021/03/30 17:13:18;;;;;;;20.67;8.10;;;;;;;;;;6199064;23;20176;-88
2021/03/30 17:16:22;;;;;;;22.80;7.47;;;;;;;;;;6199422;23;20191;-88
2021/03/30 17:19:28;;;;;;;17.15;6.63;;;;;;;;;;6198975;23;20219;-88
2021/03/30 17:22:33;;;;;;;19.63;7.60;;;;;;;;;;6198648;23;20175;-88
2021/03/30 17:25:37;;;;;;;14.90;6.63;;;;;;;;;;6198706;23;20196;-88
2021/03/30 17:28:45;;;;;;;19.02;7.30;;;;;;;;;;6199486;23;20204;-88
2021/03/30 17:31:50;;;;;;;14.00;6.32;;;;;;;;;;6197948;23;20201;-88
2021/03/30 17:34:56;;;;;;;15.38;7.13;;;;;;;;;;6197419;23;20191;-90
2021/03/30 17:38:02;;;;;;;17.25;6.07;;;;;;;;;;6179624;23;20171;-89
2021/03/30 17:41:07;;;;;;;17.85;6.65;;;;;;;;;;6197090;23;20628;-89
2021/03/30 17:44:15;;;;;;;27.33;9.20;;;;;;;;;;6194195;23;20301;-89
2021/03/30 17:47:24;;;;;;;23.88;7.45;;;;;;;;;;6196376;23;20228;-88
2021/03/30 17:50:29;;;;;;;16.63;6.30;;;;;;;;;;6178749;23;20183;-88
2021/03/30 17:53:34;;;;;;;17.27;6.88;;;;;;;;;;6194616;23;20631;-89
2021/03/30 17:56:38;;;;;;;16.00;6.57;;;;;;;;;;6194612;23;20172;-88
2021/03/30 17:59:45;;;;;;;22.20;6.22;;;;;;;;;;6190886;23;20223;-89
2021/03/30 18:02:49;;;;;;;18.13;6.10;;;;;;;;;;6193411;23;20188;-88
2021/03/30 18:05:54;;;;;;;17.15;6.75;;;;;;;;;;6176468;23;20270;-88
2021/03/30 18:08:59;;;;;;;17.23;6.05;;;;;;;;;;6176232;23;20555;-89
2021/03/30 18:12:05;;;;;;;16.10;5.25;;;;;;;;;;6209619;23;20277;-88
2021/03/30 18:15:10;;;;;;;24.33;6.53;;;;;;;;;;6193277;23;20168;-88
2021/03/30 18:18:15;;;;;;;19.20;5.85;;;;;;;;;;6193541;23;20167;-90
2021/03/30 18:21:20;;;;;;;20.60;8.13;;;;;;;;;;6192996;23;20196;-89
2021/03/30 18:24:37;;;;;;;19.55;7.13;;;;;;;;;;6207662;23;20191;-88
2021/03/30 18:27:42;;;;;;;18.55;8.13;;;;;;;;;;6190814;23;20502;-89
2021/03/30 18:30:47;;;;;;;20.50;8.25;;;;;;;;;;6190690;23;20172;-88
2021/03/30 18:33:52;;;;;;;19.40;7.10;;;;;;;;;;6190586;23;20172;-89
2021/03/30 18:36:58;;;;;;;12.70;6.68;;;;;;;;;;6191727;23;20171;-89
2021/03/30 18:40:02;;;;;;;14.63;6.88;;;;;;;;;;6192068;23;20551;-89
2021/03/30 18:43:08;;;;;;;18.77;7.03;;;;;;;;;;6211326;23;20172;-88
2021/03/30 18:46:13;;;;;;;18.73;7.75;;;;;;;;;;6193202;23;20520;-88
2021/03/30 18:49:17;;;;;;;24.27;7.07;;;;;;;;;;6195186;23;20172;-89
2021/03/30 18:52:23;;;;;;;22.50;6.90;;;;;;;;;;6195827;23;20176;-88
2021/03/30 18:55:28;;;;;;;25.25;7.85;;;;;;;;;;6194804;23;20192;-89
2021/03/30 18:58:36;;;;;;;15.98;5.30;;;;;;;;;;6194216;23;20180;-89
2021/03/30 19:01:41;;;;;;;19.02;5.95;;;;;;;;;;6195490;23;20288;-87
2021/03/30 19:04:46;;;;;;;14.77;5.75;;;;;;;;;;6211475;23;20184;-88
2021/03/30 19:07:51;;;;;;;13.13;5.25;;;;;;;;;;6194460;23;20172;-88
2021/03/30 19:10:56;;;;;;;17.75;5.03;;;;;;;;;;6195891;23;20227;-90